Time;durP1;ratioP1;P1;durP2;ratioP2;P2;SDS_P1;SDS_P2;PMS_P1;PMS_P2;Temp;Humidity;BMP_temperature;BMP_pressure;BME280_temperature;BME280_humidity;BME280_pressure;Samples;Min_cycle;Max_cycle;Signal;HPM_P1;HPM_P2
2021/01/24 00:02:15;;;;;;;8.73;6.97;;;5.20;99.90;;;;;;5095456;28;20197;-77
2021/01/24 00:04:40;;;;;;;7.60;6.80;;;5.20;99.90;;;;;;5095168;28;20523;-78
2021/01/24 00:07:06;;;;;;;8.53;7.10;;;5.30;99.90;;;;;;5095159;28;20263;-77
2021/01/24 00:09:32;;;;;;;9.77;7.40;;;5.30;99.90;;;;;;5096533;28;20176;-78
2021/01/24 00:11:57;;;;;;;7.90;7.07;;;5.30;99.90;;;;;;5094424;27;20713;-77
2021/01/24 00:14:23;;;;;;;7.73;6.93;;;5.30;99.90;;;;;;5095486;28;20532;-77
2021/01/24 00:16:48;;;;;;;9.53;7.20;;;5.40;99.90;;;;;;5095711;28;20196;-76
2021/01/24 00:19:14;;;;;;;10.23;6.87;;;5.40;99.90;;;;;;5097117;28;20314;-77
2021/01/24 00:21:40;;;;;;;7.43;6.70;;;5.40;99.90;;;;;;5109923;27;20172;-76
2021/01/24 00:24:06;;;;;;;7.33;6.63;;;5.40;99.90;;;;;;5143030;27;20186;-76
2021/01/24 00:26:31;;;;;;;7.77;7.00;;;5.40;99.90;;;;;;5149967;27;20184;-76
2021/01/24 00:28:57;;;;;;;9.37;7.03;;;5.40;99.90;;;;;;5139407;27;20416;-78
2021/01/24 00:31:22;;;;;;;7.43;6.40;;;5.40;99.90;;;;;;5133089;27;20614;-77
2021/01/24 00:33:48;;;;;;;11.50;7.40;;;5.40;99.90;;;;;;5112993;28;20165;-78
2021/01/24 00:36:15;;;;;;;7.57;6.87;;;5.50;99.90;;;;;;5107035;28;20200;-77
2021/01/24 00:38:41;;;;;;;7.00;6.30;;;5.40;99.90;;;;;;5094280;27;20189;-77
2021/01/24 00:41:07;;;;;;;8.07;7.27;;;5.40;99.90;;;;;;5094284;28;20910;-77
2021/01/24 00:43:33;;;;;;;8.57;7.67;;;5.40;99.90;;;;;;5094713;28;20449;-77
2021/01/24 00:45:59;;;;;;;6.97;6.30;;;5.40;99.90;;;;;;5094401;28;20427;-77
2021/01/24 00:48:24;;;;;;;7.73;6.63;;;5.40;99.90;;;;;;5093190;28;20622;-77
2021/01/24 00:50:51;;;;;;;7.27;6.50;;;5.40;99.90;;;;;;5094122;28;20645;-78
2021/01/24 00:53:17;;;;;;;7.20;6.50;;;5.40;99.90;;;;;;5106962;28;20413;-76
2021/01/24 00:55:42;;;;;;;7.93;6.10;;;5.30;99.90;;;;;;5098317;27;20927;-77
2021/01/24 00:58:08;;;;;;;6.07;5.57;;;5.20;99.90;;;;;;5094071;28;20173;-77
2021/01/24 01:00:33;;;;;;;7.60;6.20;;;5.20;99.90;;;;;;5094008;28;20183;-77
2021/01/24 01:02:59;;;;;;;6.67;5.83;;;5.20;99.90;;;;;;5098242;28;20241;-77
2021/01/24 01:05:24;;;;;;;6.97;5.70;;;5.10;99.90;;;;;;5116437;28;20172;-78
2021/01/24 01:07:50;;;;;;;6.93;6.30;;;5.00;99.90;;;;;;5119078;28;20173;-77
2021/01/24 01:10:15;;;;;;;7.17;6.47;;;5.00;99.90;;;;;;5115147;28;20168;-77
2021/01/24 01:12:41;;;;;;;7.40;6.57;;;5.00;99.90;;;;;;5115005;28;20606;-77
2021/01/24 01:15:07;;;;;;;7.77;6.97;;;5.10;99.90;;;;;;5112976;28;20933;-77
2021/01/24 01:17:33;;;;;;;6.90;6.27;;;5.10;99.90;;;;;;5114945;28;20190;-77
2021/01/24 01:19:58;;;;;;;5.57;5.07;;;5.20;99.90;;;;;;5114867;28;20401;-77
2021/01/24 01:22:24;;;;;;;8.13;5.70;;;5.10;99.90;;;;;;5113182;28;20212;-77
2021/01/24 01:24:49;;;;;;;7.00;6.13;;;4.90;99.90;;;;;;5107441;28;20186;-77
2021/01/24 01:27:15;;;;;;;8.43;7.00;;;4.80;99.90;;;;;;5098147;28;20198;-76
2021/01/24 01:29:40;;;;;;;6.00;5.23;;;4.80;99.90;;;;;;5104628;27;20190;-77
2021/01/24 01:32:06;;;;;;;6.57;5.97;;;4.70;99.90;;;;;;5118385;28;20633;-76
2021/01/24 01:34:31;;;;;;;7.93;5.93;;;4.60;99.90;;;;;;5116591;28;20183;-76
2021/01/24 01:36:57;;;;;;;6.80;6.10;;;4.60;99.90;;;;;;5117636;28;20196;-77
2021/01/24 01:39:22;;;;;;;6.87;5.80;;;4.60;99.90;;;;;;5118442;28;20295;-75
2021/01/24 01:41:48;;;;;;;6.90;6.20;;;4.60;99.90;;;;;;5118340;28;20266;-76
2021/01/24 01:44:13;;;;;;;7.93;6.37;;;4.60;99.90;;;;;;5117640;28;20197;-76
2021/01/24 01:46:40;;;;;;;7.23;6.27;;;4.70;99.90;;;;;;5115544;28;20221;-76
2021/01/24 01:49:06;;;;;;;7.53;5.80;;;4.80;99.90;;;;;;5117986;28;20265;-76
2021/01/24 01:51:32;;;;;;;7.13;6.43;;;4.60;99.90;;;;;;5118042;27;20479;-77
2021/01/24 01:53:58;;;;;;;7.43;6.73;;;4.50;99.90;;;;;;5117536;28;20416;-77
2021/01/24 01:56:24;;;;;;;7.00;6.17;;;4.60;99.90;;;;;;5115731;28;20190;-77
2021/01/24 01:58:50;;;;;;;8.53;6.67;;;4.60;99.90;;;;;;5117986;28;20437;-77
2021/01/24 02:01:38;;;;;;;7.67;6.83;;;4.60;99.90;;;;;;5117678;27;20206;-77
2021/01/24 02:04:14;;;;;;;8.97;7.30;;;4.50;99.90;;;;;;5117772;27;20723;-77
2021/01/24 02:07:10;;;;;;;7.70;7.00;;;4.30;99.90;;;;;;5117546;28;20478;-76
2021/01/24 02:09:35;;;;;;;7.00;6.30;;;4.20;99.90;;;;;;5097224;28;20443;-75
2021/01/24 02:12:08;;;;;;;8.97;7.07;;;4.00;99.90;;;;;;5095466;28;20419;-75
2021/01/24 02:14:39;;;;;;;8.73;6.57;;;3.90;99.90;;;;;;5096499;28;20176;-77
2021/01/24 02:17:07;;;;;;;7.60;6.40;;;4.00;99.90;;;;;;5096962;28;20426;-77
2021/01/24 02:19:54;;;;;;;8.17;7.03;;;4.10;99.90;;;;;;5113473;28;20492;-77
2021/01/24 02:22:21;;;;;;;7.67;6.67;;;4.20;99.90;;;;;;5117697;28;20931;-76
2021/01/24 02:25:14;;;;;;;7.90;7.10;;;4.20;99.90;;;;;;5116600;27;20789;-76
2021/01/24 02:27:41;;;;;;;8.80;6.77;;;3.90;99.90;;;;;;5116494;28;20422;-76
2021/01/24 02:30:23;;;;;;;8.17;7.37;;;3.60;99.90;;;;;;5114994;28;20428;-77
2021/01/24 02:32:54;;;;;;;10.03;7.03;;;3.50;99.90;;;;;;5117239;28;20414;-75
2021/01/24 02:38:43;;;;;;;7.60;6.90;;;3.40;99.90;;;;;;5116700;28;20406;-76
2021/01/24 02:41:13;;;;;;;8.03;7.10;;;3.60;99.90;;;;;;5097060;28;20423;-76
2021/01/24 02:43:44;;;;;;;6.97;6.27;;;3.70;99.90;;;;;;5114596;28;20498;-76
2021/01/24 02:46:10;;;;;;;7.70;6.90;;;3.80;99.90;;;;;;5112786;27;20453;-75
2021/01/24 02:48:36;;;;;;;8.20;6.50;;;3.80;99.90;;;;;;5105798;28;20812;-75
2021/01/24 02:51:02;;;;;;;6.80;5.93;;;3.90;99.90;;;;;;5116446;28;20398;-76
2021/01/24 02:53:31;;;;;;;6.47;5.83;;;3.90;99.90;;;;;;5116329;28;20257;-75
2021/01/24 02:55:57;;;;;;;8.43;6.60;;;4.00;99.90;;;;;;5116845;27;20424;-76
2021/01/24 02:58:23;;;;;;;7.07;6.37;;;4.10;99.90;;;;;;5114941;28;20529;-75
2021/01/24 03:00:49;;;;;;;6.87;5.53;;;4.20;99.90;;;;;;5113337;27;20186;-75
2021/01/24 03:03:14;;;;;;;7.00;5.93;;;4.20;99.90;;;;;;5097578;28;20460;-75
2021/01/24 03:05:40;;;;;;;6.07;4.83;;;4.20;99.90;;;;;;5100016;28;20560;-75
2021/01/24 03:08:06;;;;;;;6.27;5.10;;;4.30;99.90;;;;;;5104307;28;20179;-75
2021/01/24 03:10:32;;;;;;;6.60;5.00;;;4.30;99.90;;;;;;5096080;28;20257;-75
2021/01/24 03:13:35;;;;;;;5.33;4.50;;;4.40;99.90;;;;;;5095702;28;20445;-76
2021/01/24 03:16:01;;;;;;;5.40;4.63;;;4.40;99.90;;;;;;5094118;28;20214;-75
2021/01/24 03:18:30;;;;;;;4.30;3.70;;;4.40;99.90;;;;;;5096597;28;20771;-76
2021/01/24 03:20:57;;;;;;;3.60;3.30;;;4.30;99.90;;;;;;5095702;28;20413;-76
2021/01/24 03:23:25;;;;;;;3.73;3.43;;;4.30;99.90;;;;;;5103274;28;20676;-76
2021/01/24 03:25:51;;;;;;;3.07;2.70;;;4.30;99.90;;;;;;5095665;28;20474;-76
2021/01/24 03:28:17;;;;;;;2.83;2.60;;;4.30;99.90;;;;;;5096793;28;20429;-76
2021/01/24 03:30:43;;;;;;;2.10;1.90;;;4.40;99.90;;;;;;5095666;28;20441;-75
2021/01/24 03:33:09;;;;;;;2.63;2.43;;;4.40;99.90;;;;;;5095558;28;20878;-75
2021/01/24 03:35:35;;;;;;;1.63;1.53;;;4.20;99.90;;;;;;5095127;28;20225;-76
2021/01/24 03:38:01;;;;;;;2.13;1.93;;;4.20;99.90;;;;;;5096112;27;20449;-76
2021/01/24 03:40:26;;;;;;;1.70;1.60;;;4.20;99.90;;;;;;5094541;28;20410;-76
2021/01/24 03:42:52;;;;;;;2.00;1.90;;;4.20;99.90;;;;;;5095446;28;20313;-76
2021/01/24 03:45:18;;;;;;;2.00;1.80;;;4.20;99.90;;;;;;5096711;28;20187;-76
2021/01/24 03:47:43;;;;;;;1.63;1.53;;;4.20;99.90;;;;;;5095433;28;20195;-76
2021/01/24 03:50:09;;;;;;;1.77;1.67;;;4.00;99.90;;;;;;5099510;27;20197;-76
2021/01/24 03:52:35;;;;;;;1.50;1.40;;;3.90;99.90;;;;;;5111970;28;20177;-76
2021/01/24 03:55:01;;;;;;;1.40;1.30;;;3.60;99.90;;;;;;5105209;28;20453;-76
2021/01/24 03:57:27;;;;;;;0.90;0.90;;;3.30;99.90;;;;;;5103487;28;20193;-77
2021/01/24 03:59:53;;;;;;;1.10;1.10;;;3.10;99.90;;;;;;5129297;27;20453;-77
2021/01/24 04:02:20;;;;;;;1.30;1.30;;;2.80;99.90;;;;;;5129711;28;20196;-76
2021/01/24 04:04:46;;;;;;;2.10;2.00;;;2.80;99.90;;;;;;5115487;28;20903;-76
2021/01/24 04:07:12;;;;;;;2.27;2.17;;;2.70;99.90;;;;;;5114584;28;20437;-76
2021/01/24 04:09:38;;;;;;;3.10;2.90;;;2.60;99.90;;;;;;5114572;28;20176;-76
2021/01/24 04:12:03;;;;;;;3.00;2.80;;;2.50;99.90;;;;;;5094813;28;20956;-76
2021/01/24 04:14:29;;;;;;;3.73;3.43;;;2.50;99.90;;;;;;5094676;27;20433;-76
2021/01/24 04:16:54;;;;;;;3.87;3.57;;;2.40;99.90;;;;;;5094512;28;20642;-75
2021/01/24 04:19:20;;;;;;;4.83;4.30;;;2.30;99.90;;;;;;5092870;28;20180;-75
2021/01/24 04:21:45;;;;;;;4.97;4.57;;;2.20;99.90;;;;;;5102376;27;20229;-75
2021/01/24 04:24:11;;;;;;;4.80;4.20;;;2.10;99.90;;;;;;5097945;28;20260;-75
2021/01/24 04:26:36;;;;;;;5.30;4.80;;;1.90;99.90;;;;;;5093987;27;20209;-75
2021/01/24 04:29:02;;;;;;;5.13;4.63;;;1.90;99.90;;;;;;5094285;28;20576;-75
2021/01/24 04:31:28;;;;;;;6.37;4.90;;;2.00;99.90;;;;;;5095222;28;20206;-75
2021/01/24 04:33:53;;;;;;;4.83;4.43;;;2.10;99.90;;;;;;5093820;28;20181;-76
2021/01/24 04:36:19;;;;;;;4.37;3.83;;;2.00;99.90;;;;;;5094167;28;20188;-75
2021/01/24 04:38:44;;;;;;;4.10;3.80;;;2.00;99.90;;;;;;5094394;28;20172;-75
2021/01/24 04:41:10;;;;;;;4.43;3.87;;;1.90;99.90;;;;;;5108920;27;20308;-75
2021/01/24 04:43:36;;;;;;;3.10;2.90;;;1.90;99.90;;;;;;5110443;28;20679;-77
2021/01/24 04:46:02;;;;;;;3.10;2.80;;;1.80;99.90;;;;;;5114639;28;20192;-75
2021/01/24 04:48:27;;;;;;;3.60;3.30;;;1.80;99.90;;;;;;5114478;28;20882;-75
2021/01/24 04:50:53;;;;;;;4.20;3.40;;;1.90;99.90;;;;;;5114237;28;20652;-75
2021/01/24 04:53:20;;;;;;;3.10;2.80;;;1.80;99.90;;;;;;5112294;28;20184;-75
2021/01/24 04:55:46;;;;;;;5.10;2.93;;;1.70;99.90;;;;;;5113934;28;20452;-75
2021/01/24 04:58:12;;;;;;;4.83;4.33;;;1.70;99.90;;;;;;5113485;27;20434;-75
2021/01/24 05:00:37;;;;;;;5.50;4.20;;;1.60;99.90;;;;;;5114069;28;20768;-75
2021/01/24 05:03:04;;;;;;;5.60;4.60;;;1.70;99.90;;;;;;5109759;28;20457;-75
2021/01/24 05:05:29;;;;;;;4.27;3.87;;;1.50;99.90;;;;;;5114608;28;20195;-75
2021/01/24 05:07:59;;;;;;;4.93;4.20;;;1.50;99.90;;;;;;5115398;27;20410;-76
2021/01/24 05:10:29;;;;;;;5.23;3.60;;;1.50;99.90;;;;;;5115779;28;20198;-76
2021/01/24 05:12:56;;;;;;;4.40;4.00;;;1.50;99.90;;;;;;5115315;28;20409;-75
2021/01/24 05:15:22;;;;;;;6.95;4.30;;;1.50;99.90;;;;;;5112241;28;20175;-75
2021/01/24 05:17:53;;;;;;;5.30;4.80;;;1.50;99.90;;;;;;5109686;28;20163;-75
2021/01/24 05:20:26;;;;;;;5.13;4.07;;;1.50;99.90;;;;;;5106791;27;20483;-75
2021/01/24 05:22:53;;;;;;;5.50;4.03;;;1.50;99.90;;;;;;5114667;28;20449;-75
2021/01/24 05:25:33;;;;;;;5.13;4.63;;;1.50;99.90;;;;;;5112661;28;20410;-75
2021/01/24 05:28:18;;;;;;;5.80;5.07;;;1.50;99.90;;;;;;5114739;28;20441;-75
2021/01/24 05:30:44;;;;;;;6.03;5.20;;;1.60;99.90;;;;;;5097352;27;20426;-76
2021/01/24 05:33:10;;;;;;;4.70;4.27;;;1.60;99.90;;;;;;5096814;28;20414;-76
2021/01/24 05:35:52;;;;;;;5.57;4.33;;;1.60;99.90;;;;;;5097478;28;20659;-76
2021/01/24 05:38:29;;;;;;;4.17;3.80;;;1.60;99.90;;;;;;5096914;28;20580;-76
2021/01/24 05:40:55;;;;;;;3.50;3.20;;;1.60;99.90;;;;;;5100277;28;20402;-76
2021/01/24 05:43:24;;;;;;;3.70;3.40;;;1.60;99.90;;;;;;5100034;28;20661;-76
2021/01/24 05:45:51;;;;;;;3.90;3.60;;;1.60;99.90;;;;;;5100737;27;20488;-76
2021/01/24 05:48:16;;;;;;;4.40;4.00;;;1.60;99.90;;;;;;5099358;28;20407;-75
2021/01/24 05:50:45;;;;;;;3.73;3.33;;;1.60;99.90;;;;;;5098947;28;20411;-76
2021/01/24 05:53:13;;;;;;;3.60;3.30;;;1.50;99.90;;;;;;5097905;28;20176;-76
2021/01/24 05:55:38;;;;;;;3.97;3.23;;;1.60;99.90;;;;;;5105860;28;20461;-76
2021/01/24 05:58:22;;;;;;;3.77;3.27;;;1.50;99.90;;;;;;5118617;28;20414;-76
2021/01/24 06:00:52;;;;;;;3.50;2.67;;;1.50;99.90;;;;;;5121397;27;20550;-76
2021/01/24 06:03:19;;;;;;;3.00;2.80;;;1.50;99.90;;;;;;5123475;28;20487;-76
2021/01/24 06:05:45;;;;;;;3.57;2.60;;;1.50;99.90;;;;;;5122611;28;20448;-76
2021/01/24 06:08:14;;;;;;;3.13;2.90;;;1.40;99.90;;;;;;5120482;28;20421;-77
2021/01/24 06:10:40;;;;;;;4.13;3.70;;;1.40;99.90;;;;;;5122911;28;20434;-76
2021/01/24 06:13:11;;;;;;;4.27;3.87;;;1.40;99.90;;;;;;5126692;28;20164;-76
2021/01/24 06:15:37;;;;;;;4.80;3.57;;;1.50;99.90;;;;;;5126513;28;20550;-77
2021/01/24 06:18:11;;;;;;;5.60;4.77;;;1.50;99.90;;;;;;5127541;27;20444;-77
2021/01/24 06:20:40;;;;;;;6.13;5.10;;;1.50;99.90;;;;;;5130249;28;20740;-76
2021/01/24 06:23:32;;;;;;;6.40;4.80;;;1.50;99.90;;;;;;5119085;27;20450;-76
2021/01/24 06:26:13;;;;;;;6.97;5.30;;;1.50;99.90;;;;;;5122914;28;20179;-77
2021/01/24 06:28:44;;;;;;;7.45;5.80;;;1.50;99.90;;;;;;5115293;27;20421;-77
2021/01/24 06:31:14;;;;;;;6.90;5.73;;;1.40;99.90;;;;;;5097901;28;20204;-77
2021/01/24 06:33:44;;;;;;;7.80;6.20;;;1.40;99.90;;;;;;5097200;28;20411;-77
2021/01/24 06:36:09;;;;;;;7.77;5.80;;;1.40;99.90;;;;;;5097885;28;20567;-77
2021/01/24 06:38:37;;;;;;;7.83;6.60;;;1.30;99.90;;;;;;5097604;28;20526;-77
2021/01/24 06:41:11;;;;;;;8.73;5.30;;;1.30;99.90;;;;;;5109760;27;20206;-77
2021/01/24 06:43:45;;;;;;;8.97;6.67;;;1.40;99.90;;;;;;5096500;28;20227;-77
2021/01/24 06:46:29;;;;;;;6.50;5.60;;;1.40;99.90;;;;;;5096748;28;20415;-77
2021/01/24 06:48:56;;;;;;;7.20;6.05;;;1.50;99.90;;;;;;5096758;28;20215;-77
2021/01/24 06:51:35;;;;;;;5.75;4.80;;;1.50;99.90;;;;;;5102559;27;20180;-76
2021/01/24 06:54:06;;;;;;;9.38;5.15;;;1.50;99.90;;;;;;5119402;28;20225;-76
2021/01/24 06:56:46;;;;;;;8.17;5.13;;;1.40;99.90;;;;;;5120273;28;20236;-77
2021/01/24 06:59:12;;;;;;;7.23;5.80;;;1.40;99.90;;;;;;5117977;28;20414;-76
2021/01/24 07:01:42;;;;;;;9.23;6.43;;;1.40;99.90;;;;;;5116511;28;20413;-77
2021/01/24 07:04:17;;;;;;;10.98;6.63;;;1.40;99.90;;;;;;5116984;28;20454;-77
2021/01/24 07:07:11;;;;;;;9.07;7.07;;;1.40;99.90;;;;;;5117045;28;20191;-77
2021/01/24 07:09:41;;;;;;;7.83;6.70;;;1.40;99.90;;;;;;5099012;28;20187;-77
2021/01/24 07:12:07;;;;;;;10.73;7.60;;;1.50;99.90;;;;;;5116285;28;20402;-77
2021/01/24 07:14:33;;;;;;;16.73;8.30;;;1.50;99.90;;;;;;5125701;27;20441;-77
2021/01/24 07:17:02;;;;;;;10.83;8.60;;;1.50;99.90;;;;;;5131572;28;20653;-77
2021/01/24 07:19:29;;;;;;;10.93;8.20;;;1.50;99.90;;;;;;5132290;28;20514;-78
2021/01/24 07:21:55;;;;;;;21.83;10.50;;;1.50;99.90;;;;;;5129244;27;20437;-77
2021/01/24 07:24:22;;;;;;;16.40;10.80;;;1.50;99.90;;;;;;5127160;27;20442;-78
2021/01/24 07:26:48;;;;;;;16.90;10.87;;;1.60;99.90;;;;;;5112600;28;20427;-78
2021/01/24 07:29:14;;;;;;;12.43;9.60;;;1.70;99.90;;;;;;5112108;28;20415;-77
2021/01/24 07:31:40;;;;;;;16.37;9.77;;;1.70;99.90;;;;;;5097187;28;20891;-78
2021/01/24 07:34:06;;;;;;;14.87;10.23;;;1.80;99.90;;;;;;5097512;28;20480;-78
2021/01/24 07:36:32;;;;;;;12.90;9.57;;;1.80;99.90;;;;;;5112535;28;20434;-76
2021/01/24 07:38:58;;;;;;;13.50;10.00;;;1.80;99.90;;;;;;5116953;28;20410;-77
2021/01/24 07:41:23;;;;;;;13.53;8.97;;;1.80;99.90;;;;;;5116351;28;20406;-77
2021/01/24 07:43:49;;;;;;;12.67;8.50;;;1.90;99.90;;;;;;5115385;27;20306;-77
2021/01/24 07:46:16;;;;;;;20.40;11.83;;;2.10;99.90;;;;;;5098385;28;20239;-77
2021/01/24 07:48:41;;;;;;;15.60;10.40;;;2.00;99.90;;;;;;5095302;28;20490;-76
2021/01/24 07:51:07;;;;;;;16.30;10.30;;;2.10;99.90;;;;;;5095213;28;20570;-77
2021/01/24 07:53:33;;;;;;;14.07;10.10;;;2.10;99.90;;;;;;5095345;28;20199;-78
2021/01/24 07:56:00;;;;;;;18.40;11.57;;;2.10;99.90;;;;;;5104425;28;20453;-77
2021/01/24 07:58:26;;;;;;;16.23;11.57;;;2.20;99.90;;;;;;5115585;28;20432;-77
2021/01/24 08:00:52;;;;;;;16.83;10.07;;;2.20;99.90;;;;;;5115941;28;20406;-77
2021/01/24 08:03:22;;;;;;;20.07;12.83;;;2.20;99.90;;;;;;5115564;28;20561;-77
2021/01/24 08:05:48;;;;;;;17.90;11.90;;;2.20;99.90;;;;;;5116958;28;20188;-77
2021/01/24 08:08:14;;;;;;;18.93;12.77;;;2.30;99.90;;;;;;5115901;28;20402;-76
2021/01/24 08:10:40;;;;;;;18.57;12.80;;;2.40;99.90;;;;;;5107335;27;20440;-77
2021/01/24 08:13:05;;;;;;;21.27;14.70;;;2.40;99.90;;;;;;5104106;28;20504;-78
2021/01/24 08:15:31;;;;;;;19.73;14.20;;;2.30;99.90;;;;;;5106511;28;20629;-77
2021/01/24 08:17:58;;;;;;;25.93;16.20;;;2.30;99.90;;;;;;5114948;28;20641;-77
2021/01/24 08:20:26;;;;;;;23.47;14.80;;;2.30;99.90;;;;;;5112705;27;20437;-76
2021/01/24 08:22:52;;;;;;;26.33;16.50;;;2.40;99.90;;;;;;5113830;28;20800;-76
2021/01/24 08:25:19;;;;;;;28.23;16.77;;;2.40;99.90;;;;;;5115142;28;20402;-77
2021/01/24 08:27:45;;;;;;;25.23;16.67;;;2.40;99.90;;;;;;5113103;28;20938;-78
2021/01/24 08:30:12;;;;;;;25.13;17.50;;;2.50;99.90;;;;;;5113628;28;20442;-77
2021/01/24 08:32:40;;;;;;;26.00;17.50;;;2.50;99.90;;;;;;5113621;28;20438;-78
2021/01/24 08:35:06;;;;;;;27.97;18.40;;;2.50;99.90;;;;;;5103366;27;20560;-76
2021/01/24 08:37:32;;;;;;;29.17;17.63;;;2.40;99.90;;;;;;5099267;28;20467;-75
2021/01/24 08:39:58;;;;;;;32.40;18.87;;;2.50;99.90;;;;;;5101061;28;20461;-77
2021/01/24 08:42:24;;;;;;;34.60;21.60;;;2.60;99.90;;;;;;5093508;28;20196;-76
2021/01/24 08:45:05;;;;;;;35.17;19.63;;;2.70;99.90;;;;;;5093296;27;20784;-76
2021/01/24 08:47:31;;;;;;;33.77;21.53;;;2.70;99.90;;;;;;5093039;28;20199;-76
2021/01/24 08:50:07;;;;;;;32.40;20.93;;;2.70;99.90;;;;;;5092514;28;21021;-77
2021/01/24 08:52:33;;;;;;;36.53;20.90;;;2.60;99.90;;;;;;5094491;28;20541;-76
2021/01/24 08:55:03;;;;;;;43.00;22.50;;;2.60;99.90;;;;;;5093729;28;20438;-76
2021/01/24 08:57:36;;;;;;;38.67;21.47;;;2.60;99.90;;;;;;5093950;28;20197;-77
2021/01/24 09:00:06;;;;;;;44.03;23.67;;;2.60;99.90;;;;;;5095474;28;20446;-76
2021/01/24 09:02:33;;;;;;;40.70;24.03;;;2.70;99.90;;;;;;5094356;28;20443;-76
2021/01/24 09:05:01;;;;;;;45.20;22.37;;;2.70;99.90;;;;;;5093810;28;20445;-76
2021/01/24 09:07:47;;;;;;;47.33;25.17;;;2.70;99.90;;;;;;5093990;27;20442;-76
2021/01/24 09:10:13;;;;;;;39.97;22.90;;;2.60;99.90;;;;;;5099765;28;20420;-76
2021/01/24 09:12:39;;;;;;;45.23;25.30;;;2.70;99.90;;;;;;5114631;28;20405;-76
2021/01/24 09:15:05;;;;;;;49.80;25.73;;;2.70;99.90;;;;;;5114100;28;20402;-76
2021/01/24 09:17:30;;;;;;;45.97;26.33;;;2.80;99.90;;;;;;5113353;28;20195;-76
2021/01/24 09:19:56;;;;;;;51.77;27.50;;;2.90;99.90;;;;;;5123067;28;20418;-77
2021/01/24 09:22:21;;;;;;;45.27;25.67;;;2.80;99.90;;;;;;5111024;27;20242;-76
2021/01/24 09:24:47;;;;;;;45.33;26.37;;;2.90;99.90;;;;;;5113902;28;20164;-76
2021/01/24 09:27:13;;;;;;;48.23;27.30;;;2.90;99.90;;;;;;5114282;28;20211;-77
2021/01/24 09:29:40;;;;;;;41.00;23.30;;;3.00;99.90;;;;;;5111990;28;20208;-77
2021/01/24 09:32:06;;;;;;;51.27;26.17;;;2.80;99.90;;;;;;5101301;27;20414;-76
2021/01/24 09:34:32;;;;;;;44.93;24.43;;;2.70;99.90;;;;;;5068121;27;20800;-77
2021/01/24 09:36:58;;;;;;;44.00;24.60;;;2.60;99.90;;;;;;5103314;28;20598;-76
2021/01/24 09:39:24;;;;;;;42.67;24.50;;;2.70;99.90;;;;;;5113398;28;20746;-75
2021/01/24 09:41:49;;;;;;;46.67;26.30;;;2.70;99.90;;;;;;5114964;28;20173;-76
2021/01/24 09:44:15;;;;;;;41.43;22.70;;;2.80;99.90;;;;;;5136403;27;20313;-76
2021/01/24 09:46:41;;;;;;;45.80;25.10;;;2.90;99.90;;;;;;5125491;27;20218;-76
2021/01/24 09:49:06;;;;;;;45.33;24.77;;;2.90;99.90;;;;;;5137715;27;20405;-76
2021/01/24 09:51:32;;;;;;;43.07;23.90;;;3.00;99.90;;;;;;5122467;27;20176;-75
2021/01/24 09:53:58;;;;;;;45.73;24.27;;;3.10;99.90;;;;;;5117383;28;20178;-76
2021/01/24 09:56:26;;;;;;;37.87;23.40;;;3.10;99.90;;;;;;5114065;27;21837;-75
2021/01/24 09:58:56;;;;;;;40.60;23.10;;;3.20;99.90;;;;;;5097458;28;20257;-76
2021/01/24 10:01:22;;;;;;;42.20;26.37;;;3.20;99.90;;;;;;5097293;28;20411;-78
2021/01/24 10:03:49;;;;;;;43.27;24.20;;;3.20;99.90;;;;;;5097467;28;20516;-78
2021/01/24 10:06:16;;;;;;;35.30;21.90;;;3.20;99.90;;;;;;5097160;28;20427;-76
2021/01/24 10:08:42;;;;;;;36.03;21.90;;;3.20;99.90;;;;;;5113210;27;20491;-76
2021/01/24 10:11:08;;;;;;;34.07;20.70;;;3.10;99.90;;;;;;5117335;28;20806;-76
2021/01/24 10:13:34;;;;;;;32.77;20.37;;;3.10;99.90;;;;;;5117687;28;20440;-76
2021/01/24 10:15:59;;;;;;;32.20;20.63;;;3.10;99.90;;;;;;5116330;28;20524;-75
2021/01/24 10:18:25;;;;;;;37.63;18.73;;;3.10;99.90;;;;;;5108775;28;20499;-76
2021/01/24 10:20:51;;;;;;;27.30;16.73;;;3.20;99.90;;;;;;5096701;27;20193;-75
2021/01/24 10:23:21;;;;;;;26.13;15.80;;;3.20;99.90;;;;;;5130011;27;20457;-76
2021/01/24 10:25:49;;;;;;;25.30;17.10;;;3.20;99.90;;;;;;5124522;27;20191;-76
2021/01/24 10:28:15;;;;;;;28.53;16.60;;;3.00;99.90;;;;;;5113071;28;20414;-77
2021/01/24 10:30:41;;;;;;;27.33;17.17;;;3.00;99.90;;;;;;5118454;27;20548;-77
2021/01/24 10:33:07;;;;;;;36.37;17.83;;;3.10;99.90;;;;;;5115625;28;20881;-76
2021/01/24 10:35:32;;;;;;;26.87;17.47;;;3.10;99.90;;;;;;5115766;28;20551;-77
2021/01/24 10:37:58;;;;;;;26.33;16.30;;;3.10;99.90;;;;;;5111316;28;20218;-76
2021/01/24 10:40:23;;;;;;;26.77;17.60;;;3.20;99.90;;;;;;5109948;27;20563;-77
2021/01/24 10:42:49;;;;;;;23.67;15.40;;;3.30;99.90;;;;;;5117635;28;20252;-77
2021/01/24 10:45:14;;;;;;;25.47;15.90;;;3.30;99.90;;;;;;5118284;28;20530;-77
2021/01/24 10:47:40;;;;;;;18.47;12.87;;;3.30;99.90;;;;;;5133012;28;20192;-78
2021/01/24 10:50:08;;;;;;;19.77;12.80;;;3.30;99.90;;;;;;5121683;28;20176;-78
2021/01/24 10:52:34;;;;;;;16.43;11.40;;;3.40;99.90;;;;;;5119323;27;20200;-78
2021/01/24 10:55:00;;;;;;;14.40;9.47;;;3.40;99.90;;;;;;5123357;27;20402;-79
2021/01/24 10:57:25;;;;;;;13.50;9.93;;;3.40;99.90;;;;;;5128486;28;20453;-78
2021/01/24 10:59:51;;;;;;;12.90;9.47;;;3.30;99.90;;;;;;5099705;28;20177;-78
2021/01/24 11:02:16;;;;;;;12.70;10.10;;;3.30;99.90;;;;;;5100284;27;20247;-78
2021/01/24 11:04:42;;;;;;;12.60;9.33;;;3.40;99.90;;;;;;5098741;28;20269;-77
2021/01/24 11:07:08;;;;;;;15.10;9.37;;;3.40;99.90;;;;;;5108327;28;20205;-77
2021/01/24 11:09:33;;;;;;;13.50;9.30;;;3.50;99.90;;;;;;5116971;28;20184;-78
2021/01/24 11:11:59;;;;;;;11.33;9.30;;;3.50;99.90;;;;;;5103551;27;20197;-77
2021/01/24 11:14:26;;;;;;;14.37;10.17;;;3.50;99.90;;;;;;5108616;28;20223;-79
2021/01/24 11:16:52;;;;;;;16.67;9.80;;;3.50;99.90;;;;;;5097256;28;20434;-78
2021/01/24 11:19:17;;;;;;;11.50;9.33;;;3.60;99.90;;;;;;5095691;28;20490;-77
2021/01/24 11:21:43;;;;;;;13.80;10.47;;;3.50;99.90;;;;;;5107627;27;20436;-78
2021/01/24 11:24:09;;;;;;;16.70;11.97;;;3.30;99.90;;;;;;5115992;27;20661;-77
2021/01/24 11:26:34;;;;;;;18.07;11.83;;;2.90;99.90;;;;;;5115960;28;20188;-78
2021/01/24 11:29:00;;;;;;;14.93;10.40;;;2.70;99.90;;;;;;5115564;28;20188;-78
2021/01/24 11:31:26;;;;;;;17.30;10.70;;;2.70;99.90;;;;;;5116779;28;20611;-78
2021/01/24 11:33:51;;;;;;;15.07;10.20;;;2.80;99.90;;;;;;5113650;28;20431;-78
2021/01/24 11:36:17;;;;;;;14.20;10.37;;;2.80;99.90;;;;;;5115669;28;20329;-77
2021/01/24 11:38:43;;;;;;;14.03;9.97;;;2.90;99.90;;;;;;5116228;27;20196;-78
2021/01/24 11:41:08;;;;;;;13.70;9.80;;;2.90;99.90;;;;;;5099566;28;20251;-78
2021/01/24 11:43:34;;;;;;;12.03;9.80;;;3.00;99.90;;;;;;5105065;28;20461;-78
2021/01/24 11:46:01;;;;;;;13.37;9.07;;;3.00;99.90;;;;;;5106881;28;20188;-78
2021/01/24 11:48:26;;;;;;;13.20;9.10;;;3.10;99.90;;;;;;5107193;27;20192;-77
2021/01/24 11:50:53;;;;;;;12.73;9.20;;;3.20;99.90;;;;;;5104531;28;20437;-78
2021/01/24 11:53:20;;;;;;;13.00;8.70;;;3.40;99.90;;;;;;5133327;27;20172;-78
2021/01/24 11:55:47;;;;;;;9.67;7.80;;;3.50;99.90;;;;;;5137003;27;20429;-78
2021/01/24 11:58:15;;;;;;;12.43;8.93;;;3.40;99.90;;;;;;5137170;27;20398;-76
2021/01/24 12:00:41;;;;;;;10.03;8.17;;;3.10;99.90;;;;;;5136908;27;20843;-77
2021/01/24 12:03:06;;;;;;;12.93;7.90;;;3.00;99.90;;;;;;5101505;27;20542;-78
2021/01/24 12:05:32;;;;;;;12.50;7.70;;;2.80;99.90;;;;;;5105366;27;20413;-77
2021/01/24 12:07:57;;;;;;;13.70;8.30;;;2.80;99.90;;;;;;5118672;27;20211;-77
2021/01/24 12:10:23;;;;;;;9.63;6.77;;;2.70;99.90;;;;;;5137598;27;20176;-77
2021/01/24 12:12:48;;;;;;;8.87;7.07;;;2.60;99.90;;;;;;5122591;27;20183;-77
2021/01/24 12:15:14;;;;;;;10.07;7.43;;;2.70;99.90;;;;;;5115445;28;20200;-77
2021/01/24 12:17:39;;;;;;;11.70;8.03;;;2.70;99.90;;;;;;5117373;28;20254;-77
2021/01/24 12:20:05;;;;;;;12.13;8.30;;;2.70;99.90;;;;;;5117005;27;20191;-77
2021/01/24 12:22:31;;;;;;;13.50;8.43;;;2.70;99.90;;;;;;5120969;27;20298;-77
2021/01/24 12:24:56;;;;;;;14.67;8.30;;;2.90;99.90;;;;;;5128970;27;20442;-77
2021/01/24 12:27:22;;;;;;;13.07;9.07;;;3.00;99.90;;;;;;5131705;27;20213;-77
2021/01/24 12:29:47;;;;;;;13.87;8.00;;;3.10;99.90;;;;;;5135575;27;20189;-76
2021/01/24 12:32:13;;;;;;;12.73;7.90;;;3.10;99.90;;;;;;5133688;27;20205;-76
2021/01/24 12:34:39;;;;;;;11.90;8.40;;;3.10;99.90;;;;;;5131688;27;20185;-77
2021/01/24 12:37:04;;;;;;;10.20;7.83;;;2.90;99.90;;;;;;5108417;27;20280;-77
2021/01/24 12:39:30;;;;;;;13.87;8.50;;;3.10;99.90;;;;;;5118083;27;20259;-77
2021/01/24 12:41:55;;;;;;;14.90;10.07;;;3.30;99.90;;;;;;5135837;27;20174;-77
2021/01/24 12:44:21;;;;;;;14.97;9.97;;;3.40;99.90;;;;;;5125096;27;20204;-78
2021/01/24 12:46:46;;;;;;;13.37;9.73;;;3.50;99.90;;;;;;5114477;28;20652;-78
2021/01/24 12:49:12;;;;;;;16.80;9.17;;;3.60;99.90;;;;;;5120145;27;20177;-77
2021/01/24 12:51:37;;;;;;;15.27;9.40;;;3.60;99.90;;;;;;5121771;27;20194;-78
2021/01/24 12:54:03;;;;;;;12.50;9.50;;;3.80;99.90;;;;;;5135031;27;20167;-77
2021/01/24 12:56:29;;;;;;;13.77;9.70;;;3.80;99.90;;;;;;5116024;27;20195;-77